sensor_id;sensor_type;location;lat;lon;timestamp;P1;durP1;ratioP1;P2;durP2;ratioP2
24449;SDS011;13349;50.984;5.822;2022-11-11T00:00:57;6.10;;;2.00;;
24449;SDS011;13349;50.984;5.822;2022-11-11T00:03:26;4.03;;;2.00;;
24449;SDS011;13349;50.984;5.822;2022-11-11T00:05:53;6.70;;;2.33;;
24449;SDS011;13349;50.984;5.822;2022-11-11T00:08:20;6.35;;;2.42;;
24449;SDS011;13349;50.984;5.822;2022-11-11T00:10:48;5.13;;;2.08;;
24449;SDS011;13349;50.984;5.822;2022-11-11T00:13:15;8.10;;;2.20;;
24449;SDS011;13349;50.984;5.822;2022-11-11T00:15:43;5.97;;;2.08;;
24449;SDS011;13349;50.984;5.822;2022-11-11T00:18:11;8.10;;;2.53;;
24449;SDS011;13349;50.984;5.822;2022-11-11T00:20:59;2.97;;;1.80;;
24449;SDS011;13349;50.984;5.822;2022-11-11T00:23:43;8.77;;;2.38;;
24449;SDS011;13349;50.984;5.822;2022-11-11T00:26:28;9.32;;;2.30;;
24449;SDS011;13349;50.984;5.822;2022-11-11T00:28:55;10.45;;;2.40;;
24449;SDS011;13349;50.984;5.822;2022-11-11T00:31:23;9.48;;;2.30;;
24449;SDS011;13349;50.984;5.822;2022-11-11T00:33:51;3.20;;;2.03;;
24449;SDS011;13349;50.984;5.822;2022-11-11T00:36:19;7.88;;;2.17;;
24449;SDS011;13349;50.984;5.822;2022-11-11T00:38:45;7.20;;;2.55;;
24449;SDS011;13349;50.984;5.822;2022-11-11T00:41:14;6.38;;;2.00;;
24449;SDS011;13349;50.984;5.822;2022-11-11T00:43:43;7.43;;;2.15;;
24449;SDS011;13349;50.984;5.822;2022-11-11T00:46:12;8.15;;;2.15;;
24449;SDS011;13349;50.984;5.822;2022-11-11T00:48:58;4.18;;;2.10;;
24449;SDS011;13349;50.984;5.822;2022-11-11T00:51:43;6.43;;;2.10;;
24449;SDS011;13349;50.984;5.822;2022-11-11T00:54:11;3.97;;;1.75;;
24449;SDS011;13349;50.984;5.822;2022-11-11T00:56:38;7.53;;;2.58;;
24449;SDS011;13349;50.984;5.822;2022-11-11T00:59:06;6.82;;;1.80;;
24449;SDS011;13349;50.984;5.822;2022-11-11T01:01:34;3.92;;;2.08;;
24449;SDS011;13349;50.984;5.822;2022-11-11T01:04:04;5.75;;;2.00;;
24449;SDS011;13349;50.984;5.822;2022-11-11T01:06:31;6.45;;;2.00;;
24449;SDS011;13349;50.984;5.822;2022-11-11T01:09:03;5.50;;;2.70;;
24449;SDS011;13349;50.984;5.822;2022-11-11T01:11:30;9.02;;;3.13;;
24449;SDS011;13349;50.984;5.822;2022-11-11T01:13:58;11.95;;;4.53;;
24449;SDS011;13349;50.984;5.822;2022-11-11T01:16:25;9.68;;;4.00;;
24449;SDS011;13349;50.984;5.822;2022-11-11T01:18:53;7.57;;;3.92;;
24449;SDS011;13349;50.984;5.822;2022-11-11T01:21:22;7.47;;;3.78;;
24449;SDS011;13349;50.984;5.822;2022-11-11T01:23:51;9.02;;;3.60;;
24449;SDS011;13349;50.984;5.822;2022-11-11T01:26:19;4.03;;;3.03;;
24449;SDS011;13349;50.984;5.822;2022-11-11T01:28:48;5.60;;;2.90;;
24449;SDS011;13349;50.984;5.822;2022-11-11T01:31:16;8.90;;;3.08;;
24449;SDS011;13349;50.984;5.822;2022-11-11T01:33:44;4.05;;;2.85;;
24449;SDS011;13349;50.984;5.822;2022-11-11T01:36:13;6.10;;;2.65;;
24449;SDS011;13349;50.984;5.822;2022-11-11T01:38:43;7.75;;;2.80;;
24449;SDS011;13349;50.984;5.822;2022-11-11T01:41:18;4.63;;;2.40;;
24449;SDS011;13349;50.984;5.822;2022-11-11T01:43:59;4.43;;;2.80;;
24449;SDS011;13349;50.984;5.822;2022-11-11T01:46:29;6.90;;;2.85;;
24449;SDS011;13349;50.984;5.822;2022-11-11T01:49:02;5.82;;;2.72;;
24449;SDS011;13349;50.984;5.822;2022-11-11T01:51:50;6.70;;;2.47;;
24449;SDS011;13349;50.984;5.822;2022-11-11T01:54:23;6.00;;;3.03;;
24449;SDS011;13349;50.984;5.822;2022-11-11T01:56:56;8.02;;;3.10;;
24449;SDS011;13349;50.984;5.822;2022-11-11T01:59:29;5.28;;;2.67;;
24449;SDS011;13349;50.984;5.822;2022-11-11T02:01:58;4.03;;;2.63;;
24449;SDS011;13349;50.984;5.822;2022-11-11T02:04:28;5.45;;;2.40;;
24449;SDS011;13349;50.984;5.822;2022-11-11T02:07:13;7.50;;;2.85;;
24449;SDS011;13349;50.984;5.822;2022-11-11T02:09:44;4.60;;;2.63;;
24449;SDS011;13349;50.984;5.822;2022-11-11T02:12:12;4.65;;;2.30;;
24449;SDS011;13349;50.984;5.822;2022-11-11T02:14:57;5.60;;;2.75;;
24449;SDS011;13349;50.984;5.822;2022-11-11T02:17:26;4.57;;;3.05;;
24449;SDS011;13349;50.984;5.822;2022-11-11T02:19:57;6.82;;;3.00;;
24449;SDS011;13349;50.984;5.822;2022-11-11T02:22:28;4.53;;;2.40;;
24449;SDS011;13349;50.984;5.822;2022-11-11T02:25:03;5.80;;;2.55;;
24449;SDS011;13349;50.984;5.822;2022-11-11T02:27:35;5.05;;;2.78;;
24449;SDS011;13349;50.984;5.822;2022-11-11T02:30:06;5.53;;;2.50;;
24449;SDS011;13349;50.984;5.822;2022-11-11T02:32:40;5.22;;;2.85;;
24449;SDS011;13349;50.984;5.822;2022-11-11T02:35:10;4.97;;;2.63;;
24449;SDS011;13349;50.984;5.822;2022-11-11T02:37:40;5.45;;;2.40;;
24449;SDS011;13349;50.984;5.822;2022-11-11T02:40:12;7.18;;;2.40;;
24449;SDS011;13349;50.984;5.822;2022-11-11T02:42:43;7.65;;;2.50;;
24449;SDS011;13349;50.984;5.822;2022-11-11T02:45:11;9.45;;;2.45;;
24449;SDS011;13349;50.984;5.822;2022-11-11T02:47:38;6.07;;;3.08;;
24449;SDS011;13349;50.984;5.822;2022-11-11T02:50:06;3.95;;;3.03;;
24449;SDS011;13349;50.984;5.822;2022-11-11T02:52:33;8.20;;;2.92;;
24449;SDS011;13349;50.984;5.822;2022-11-11T02:55:00;3.92;;;3.13;;
24449;SDS011;13349;50.984;5.822;2022-11-11T02:57:29;8.10;;;2.70;;
24449;SDS011;13349;50.984;5.822;2022-11-11T02:59:58;5.70;;;2.42;;
24449;SDS011;13349;50.984;5.822;2022-11-11T03:02:26;5.97;;;2.47;;
24449;SDS011;13349;50.984;5.822;2022-11-11T03:04:54;8.32;;;2.53;;
24449;SDS011;13349;50.984;5.822;2022-11-11T03:07:22;7.85;;;2.58;;
24449;SDS011;13349;50.984;5.822;2022-11-11T03:09:50;11.98;;;3.00;;
24449;SDS011;13349;50.984;5.822;2022-11-11T03:12:17;11.32;;;3.05;;
24449;SDS011;13349;50.984;5.822;2022-11-11T03:14:46;8.25;;;2.65;;
24449;SDS011;13349;50.984;5.822;2022-11-11T03:17:13;7.93;;;3.10;;
24449;SDS011;13349;50.984;5.822;2022-11-11T03:19:57;8.55;;;2.80;;
24449;SDS011;13349;50.984;5.822;2022-11-11T03:22:38;10.52;;;3.42;;
24449;SDS011;13349;50.984;5.822;2022-11-11T03:25:05;11.02;;;3.33;;
24449;SDS011;13349;50.984;5.822;2022-11-11T03:27:50;7.32;;;2.60;;
24449;SDS011;13349;50.984;5.822;2022-11-11T03:30:19;8.07;;;3.50;;
24449;SDS011;13349;50.984;5.822;2022-11-11T03:32:46;5.68;;;3.03;;
24449;SDS011;13349;50.984;5.822;2022-11-11T03:35:13;10.48;;;2.80;;
24449;SDS011;13349;50.984;5.822;2022-11-11T03:37:41;4.35;;;2.70;;
24449;SDS011;13349;50.984;5.822;2022-11-11T03:40:25;8.18;;;2.80;;
24449;SDS011;13349;50.984;5.822;2022-11-11T03:42:53;8.40;;;2.97;;
24449;SDS011;13349;50.984;5.822;2022-11-11T03:45:21;6.50;;;2.53;;
24449;SDS011;13349;50.984;5.822;2022-11-11T03:47:48;4.00;;;2.25;;
24449;SDS011;13349;50.984;5.822;2022-11-11T03:50:16;4.07;;;2.17;;
24449;SDS011;13349;50.984;5.822;2022-11-11T03:52:43;3.10;;;2.03;;
24449;SDS011;13349;50.984;5.822;2022-11-11T03:55:10;7.75;;;2.33;;
24449;SDS011;13349;50.984;5.822;2022-11-11T03:57:39;5.30;;;2.28;;
24449;SDS011;13349;50.984;5.822;2022-11-11T04:00:07;5.88;;;2.30;;
24449;SDS011;13349;50.984;5.822;2022-11-11T04:02:37;2.92;;;2.30;;
24449;SDS011;13349;50.984;5.822;2022-11-11T04:05:21;4.47;;;2.03;;
24449;SDS011;13349;50.984;5.822;2022-11-11T04:08:08;3.53;;;1.95;;
24449;SDS011;13349;50.984;5.822;2022-11-11T04:10:55;4.20;;;2.10;;
24449;SDS011;13349;50.984;5.822;2022-11-11T04:13:23;7.00;;;1.70;;
24449;SDS011;13349;50.984;5.822;2022-11-11T04:16:08;3.00;;;2.00;;
24449;SDS011;13349;50.984;5.822;2022-11-11T04:18:36;6.43;;;2.03;;
24449;SDS011;13349;50.984;5.822;2022-11-11T04:21:29;8.38;;;2.13;;
24449;SDS011;13349;50.984;5.822;2022-11-11T04:24:09;5.32;;;2.30;;
24449;SDS011;13349;50.984;5.822;2022-11-11T04:26:55;4.25;;;2.00;;
24449;SDS011;13349;50.984;5.822;2022-11-11T04:29:23;4.45;;;2.10;;
24449;SDS011;13349;50.984;5.822;2022-11-11T04:31:52;5.05;;;2.08;;
24449;SDS011;13349;50.984;5.822;2022-11-11T04:34:39;5.60;;;1.90;;
24449;SDS011;13349;50.984;5.822;2022-11-11T04:37:06;4.53;;;1.85;;
24449;SDS011;13349;50.984;5.822;2022-11-11T04:39:33;5.30;;;1.98;;
24449;SDS011;13349;50.984;5.822;2022-11-11T04:42:17;4.18;;;2.03;;
24449;SDS011;13349;50.984;5.822;2022-11-11T04:44:45;6.32;;;1.90;;
24449;SDS011;13349;50.984;5.822;2022-11-11T04:47:29;2.33;;;1.55;;
24449;SDS011;13349;50.984;5.822;2022-11-11T04:49:58;6.13;;;1.70;;
24449;SDS011;13349;50.984;5.822;2022-11-11T04:52:25;4.35;;;1.80;;
24449;SDS011;13349;50.984;5.822;2022-11-11T04:54:53;3.65;;;1.63;;
24449;SDS011;13349;50.984;5.822;2022-11-11T04:57:39;5.53;;;1.65;;
24449;SDS011;13349;50.984;5.822;2022-11-11T05:00:08;3.20;;;1.85;;
24449;SDS011;13349;50.984;5.822;2022-11-11T05:02:38;2.97;;;1.60;;
24449;SDS011;13349;50.984;5.822;2022-11-11T05:05:24;3.40;;;1.70;;
24449;SDS011;13349;50.984;5.822;2022-11-11T05:07:52;3.25;;;2.03;;
24449;SDS011;13349;50.984;5.822;2022-11-11T05:10:37;3.15;;;1.75;;
24449;SDS011;13349;50.984;5.822;2022-11-11T05:13:04;5.15;;;1.75;;
24449;SDS011;13349;50.984;5.822;2022-11-11T05:15:49;2.92;;;1.77;;
24449;SDS011;13349;50.984;5.822;2022-11-11T05:18:33;3.50;;;1.65;;
24449;SDS011;13349;50.984;5.822;2022-11-11T05:21:20;3.78;;;1.73;;
24449;SDS011;13349;50.984;5.822;2022-11-11T05:23:51;3.92;;;1.75;;
24449;SDS011;13349;50.984;5.822;2022-11-11T05:26:35;5.45;;;1.55;;
24449;SDS011;13349;50.984;5.822;2022-11-11T05:29:02;4.93;;;1.77;;
24449;SDS011;13349;50.984;5.822;2022-11-11T05:31:29;5.32;;;1.85;;
24449;SDS011;13349;50.984;5.822;2022-11-11T05:33:56;3.97;;;1.73;;
24449;SDS011;13349;50.984;5.822;2022-11-11T05:36:25;4.65;;;2.00;;
24449;SDS011;13349;50.984;5.822;2022-11-11T05:38:52;2.83;;;1.55;;
24449;SDS011;13349;50.984;5.822;2022-11-11T05:41:20;3.45;;;1.40;;
24449;SDS011;13349;50.984;5.822;2022-11-11T05:43:47;3.97;;;1.60;;
24449;SDS011;13349;50.984;5.822;2022-11-11T05:46:14;2.17;;;1.38;;
24449;SDS011;13349;50.984;5.822;2022-11-11T05:48:41;2.53;;;1.30;;
24449;SDS011;13349;50.984;5.822;2022-11-11T05:51:22;1.80;;;1.23;;
24449;SDS011;13349;50.984;5.822;2022-11-11T05:53:55;2.80;;;1.40;;
24449;SDS011;13349;50.984;5.822;2022-11-11T05:56:23;4.03;;;1.70;;
24449;SDS011;13349;50.984;5.822;2022-11-11T05:58:50;2.25;;;1.40;;
24449;SDS011;13349;50.984;5.822;2022-11-11T06:01:18;2.80;;;1.40;;
24449;SDS011;13349;50.984;5.822;2022-11-11T06:03:45;2.13;;;1.30;;
24449;SDS011;13349;50.984;5.822;2022-11-11T06:06:12;4.35;;;1.60;;
24449;SDS011;13349;50.984;5.822;2022-11-11T06:08:39;4.20;;;1.50;;
24449;SDS011;13349;50.984;5.822;2022-11-11T06:11:08;2.08;;;1.60;;
24449;SDS011;13349;50.984;5.822;2022-11-11T06:13:35;4.32;;;1.63;;
24449;SDS011;13349;50.984;5.822;2022-11-11T06:16:03;4.82;;;2.30;;
24449;SDS011;13349;50.984;5.822;2022-11-11T06:18:30;3.40;;;1.90;;
24449;SDS011;13349;50.984;5.822;2022-11-11T06:20:58;3.78;;;1.63;;
24449;SDS011;13349;50.984;5.822;2022-11-11T06:23:26;2.60;;;1.60;;
24449;SDS011;13349;50.984;5.822;2022-11-11T06:25:54;5.15;;;1.58;;
24449;SDS011;13349;50.984;5.822;2022-11-11T06:28:43;2.58;;;1.58;;
24449;SDS011;13349;50.984;5.822;2022-11-11T06:31:12;3.22;;;1.35;;
24449;SDS011;13349;50.984;5.822;2022-11-11T06:33:40;2.22;;;1.40;;
24449;SDS011;13349;50.984;5.822;2022-11-11T06:36:08;3.45;;;1.60;;
24449;SDS011;13349;50.984;5.822;2022-11-11T06:38:37;4.43;;;1.63;;
24449;SDS011;13349;50.984;5.822;2022-11-11T06:41:04;2.70;;;1.23;;
24449;SDS011;13349;50.984;5.822;2022-11-11T06:43:32;3.08;;;1.17;;
24449;SDS011;13349;50.984;5.822;2022-11-11T06:46:01;2.28;;;0.98;;
24449;SDS011;13349;50.984;5.822;2022-11-11T06:48:28;2.80;;;1.38;;
24449;SDS011;13349;50.984;5.822;2022-11-11T06:50:59;3.55;;;1.30;;
24449;SDS011;13349;50.984;5.822;2022-11-11T06:53:28;1.45;;;1.10;;
24449;SDS011;13349;50.984;5.822;2022-11-11T06:55:55;2.17;;;1.23;;
24449;SDS011;13349;50.984;5.822;2022-11-11T06:58:23;1.55;;;1.23;;
24449;SDS011;13349;50.984;5.822;2022-11-11T07:00:50;3.20;;;1.38;;
24449;SDS011;13349;50.984;5.822;2022-11-11T07:03:20;2.40;;;1.23;;
24449;SDS011;13349;50.984;5.822;2022-11-11T07:05:47;0.90;;;0.90;;
24449;SDS011;13349;50.984;5.822;2022-11-11T07:08:15;5.65;;;1.10;;
24449;SDS011;13349;50.984;5.822;2022-11-11T07:10:44;3.28;;;1.10;;
24449;SDS011;13349;50.984;5.822;2022-11-11T07:13:12;1.70;;;1.15;;
24449;SDS011;13349;50.984;5.822;2022-11-11T07:15:40;2.55;;;1.55;;
24449;SDS011;13349;50.984;5.822;2022-11-11T07:18:08;2.60;;;1.85;;
24449;SDS011;13349;50.984;5.822;2022-11-11T07:20:38;2.00;;;1.30;;
24449;SDS011;13349;50.984;5.822;2022-11-11T07:23:05;2.42;;;1.08;;
24449;SDS011;13349;50.984;5.822;2022-11-11T07:25:32;1.45;;;0.90;;
24449;SDS011;13349;50.984;5.822;2022-11-11T07:28:00;1.08;;;1.00;;
24449;SDS011;13349;50.984;5.822;2022-11-11T07:30:27;1.35;;;1.10;;
24449;SDS011;13349;50.984;5.822;2022-11-11T07:32:54;0.80;;;0.80;;
24449;SDS011;13349;50.984;5.822;2022-11-11T07:35:21;3.67;;;1.27;;
24449;SDS011;13349;50.984;5.822;2022-11-11T07:37:50;2.72;;;1.08;;
24449;SDS011;13349;50.984;5.822;2022-11-11T07:40:17;4.43;;;1.13;;
24449;SDS011;13349;50.984;5.822;2022-11-11T07:42:45;2.72;;;1.00;;
24449;SDS011;13349;50.984;5.822;2022-11-11T07:45:13;3.67;;;2.20;;
24449;SDS011;13349;50.984;5.822;2022-11-11T07:47:43;1.63;;;1.00;;
24449;SDS011;13349;50.984;5.822;2022-11-11T07:50:11;5.93;;;1.45;;
24449;SDS011;13349;50.984;5.822;2022-11-11T07:52:39;3.00;;;1.58;;
24449;SDS011;13349;50.984;5.822;2022-11-11T07:55:08;1.73;;;0.93;;
24449;SDS011;13349;50.984;5.822;2022-11-11T07:57:35;3.20;;;1.10;;
24449;SDS011;13349;50.984;5.822;2022-11-11T08:00:03;2.45;;;1.00;;
24449;SDS011;13349;50.984;5.822;2022-11-11T08:02:31;1.67;;;1.10;;
24449;SDS011;13349;50.984;5.822;2022-11-11T08:04:58;2.42;;;1.08;;
24449;SDS011;13349;50.984;5.822;2022-11-11T08:07:25;2.25;;;1.42;;
24449;SDS011;13349;50.984;5.822;2022-11-11T08:09:52;5.05;;;1.65;;
24449;SDS011;13349;50.984;5.822;2022-11-11T08:12:21;1.80;;;1.30;;
24449;SDS011;13349;50.984;5.822;2022-11-11T08:15:06;2.58;;;0.90;;
24449;SDS011;13349;50.984;5.822;2022-11-11T08:17:37;2.70;;;1.20;;
24449;SDS011;13349;50.984;5.822;2022-11-11T08:20:05;2.88;;;1.33;;
24449;SDS011;13349;50.984;5.822;2022-11-11T08:22:36;1.80;;;1.10;;
24449;SDS011;13349;50.984;5.822;2022-11-11T08:25:04;1.10;;;1.00;;
24449;SDS011;13349;50.984;5.822;2022-11-11T08:27:34;1.42;;;1.23;;
24449;SDS011;13349;50.984;5.822;2022-11-11T08:30:01;3.17;;;1.52;;
24449;SDS011;13349;50.984;5.822;2022-11-11T08:32:31;3.85;;;2.03;;
24449;SDS011;13349;50.984;5.822;2022-11-11T08:34:58;5.22;;;1.10;;
24449;SDS011;13349;50.984;5.822;2022-11-11T08:37:25;3.25;;;1.60;;
24449;SDS011;13349;50.984;5.822;2022-11-11T08:39:54;1.73;;;1.15;;
24449;SDS011;13349;50.984;5.822;2022-11-11T08:42:21;2.63;;;1.15;;
24449;SDS011;13349;50.984;5.822;2022-11-11T08:44:50;4.45;;;1.13;;
24449;SDS011;13349;50.984;5.822;2022-11-11T08:47:17;3.63;;;1.10;;
24449;SDS011;13349;50.984;5.822;2022-11-11T08:49:46;1.55;;;1.15;;
24449;SDS011;13349;50.984;5.822;2022-11-11T08:52:15;1.83;;;1.30;;
24449;SDS011;13349;50.984;5.822;2022-11-11T08:54:42;2.33;;;1.20;;
24449;SDS011;13349;50.984;5.822;2022-11-11T08:57:10;2.65;;;1.10;;
24449;SDS011;13349;50.984;5.822;2022-11-11T08:59:37;3.45;;;1.27;;
24449;SDS011;13349;50.984;5.822;2022-11-11T09:02:07;1.73;;;0.98;;
24449;SDS011;13349;50.984;5.822;2022-11-11T09:04:36;2.75;;;1.48;;
24449;SDS011;13349;50.984;5.822;2022-11-11T09:07:03;2.55;;;1.15;;
24449;SDS011;13349;50.984;5.822;2022-11-11T09:09:31;1.45;;;1.20;;
24449;SDS011;13349;50.984;5.822;2022-11-11T09:11:58;1.77;;;0.90;;
24449;SDS011;13349;50.984;5.822;2022-11-11T09:14:25;2.10;;;1.00;;
24449;SDS011;13349;50.984;5.822;2022-11-11T09:16:52;3.58;;;1.10;;
24449;SDS011;13349;50.984;5.822;2022-11-11T09:19:21;3.25;;;1.00;;
24449;SDS011;13349;50.984;5.822;2022-11-11T09:21:49;2.65;;;1.13;;
24449;SDS011;13349;50.984;5.822;2022-11-11T09:24:16;1.77;;;0.95;;
24449;SDS011;13349;50.984;5.822;2022-11-11T09:26:45;3.72;;;1.15;;
24449;SDS011;13349;50.984;5.822;2022-11-11T09:29:13;2.20;;;1.15;;
24449;SDS011;13349;50.984;5.822;2022-11-11T09:31:40;2.33;;;1.48;;
24449;SDS011;13349;50.984;5.822;2022-11-11T09:34:07;1.67;;;1.00;;
24449;SDS011;13349;50.984;5.822;2022-11-11T09:36:36;2.10;;;1.55;;
24449;SDS011;13349;50.984;5.822;2022-11-11T09:39:03;1.80;;;1.42;;
24449;SDS011;13349;50.984;5.822;2022-11-11T09:41:33;2.03;;;1.20;;
24449;SDS011;13349;50.984;5.822;2022-11-11T09:44:14;1.88;;;1.20;;
24449;SDS011;13349;50.984;5.822;2022-11-11T09:46:51;1.63;;;1.45;;
24449;SDS011;13349;50.984;5.822;2022-11-11T09:49:34;1.92;;;1.50;;
24449;SDS011;13349;50.984;5.822;2022-11-11T09:52:13;3.70;;;1.48;;
24449;SDS011;13349;50.984;5.822;2022-11-11T09:54:50;2.45;;;1.30;;
24449;SDS011;13349;50.984;5.822;2022-11-11T09:57:22;2.60;;;1.45;;
24449;SDS011;13349;50.984;5.822;2022-11-11T10:00:05;2.63;;;1.10;;
24449;SDS011;13349;50.984;5.822;2022-11-11T10:02:42;4.50;;;1.25;;
24449;SDS011;13349;50.984;5.822;2022-11-11T10:05:13;1.48;;;0.95;;
24449;SDS011;13349;50.984;5.822;2022-11-11T10:07:45;1.60;;;1.45;;
24449;SDS011;13349;50.984;5.822;2022-11-11T10:10:23;2.70;;;1.70;;
24449;SDS011;13349;50.984;5.822;2022-11-11T10:12:56;3.50;;;1.83;;
24449;SDS011;13349;50.984;5.822;2022-11-11T10:15:26;2.55;;;1.20;;
24449;SDS011;13349;50.984;5.822;2022-11-11T10:18:12;1.70;;;1.15;;
24449;SDS011;13349;50.984;5.822;2022-11-11T10:20:47;1.48;;;1.30;;
24449;SDS011;13349;50.984;5.822;2022-11-11T10:23:23;3.03;;;1.60;;
24449;SDS011;13349;50.984;5.822;2022-11-11T10:25:55;3.08;;;1.30;;
